createdAt,value
2022-09-07T00:00:43.303Z,941.54
2022-09-07T00:01:43.333Z,941.55
2022-09-07T00:02:43.335Z,941.58
2022-09-07T00:03:43.279Z,941.65
2022-09-07T00:06:31.212Z,941.69
2022-09-07T00:07:41.821Z,941.73
2022-09-07T00:08:32.223Z,941.72
2022-09-07T00:09:32.231Z,941.72
2022-09-07T00:10:32.204Z,941.68
2022-09-07T00:11:32.220Z,941.65
2022-09-07T00:12:32.183Z,941.65
2022-09-07T00:13:32.229Z,941.64
2022-09-07T00:14:32.167Z,941.61
2022-09-07T00:15:32.182Z,941.61
2022-09-07T00:16:32.230Z,941.61
2022-09-07T00:17:32.144Z,941.61
2022-09-07T00:18:32.142Z,941.62
2022-09-07T00:19:32.145Z,941.66
2022-09-07T00:20:32.158Z,941.65
2022-09-07T00:21:32.117Z,941.64
2022-09-07T00:22:34.764Z,941.66
2022-09-07T00:23:32.124Z,941.66
2022-09-07T00:24:32.077Z,941.64
2022-09-07T00:25:32.270Z,941.63
2022-09-07T00:26:32.101Z,941.61
2022-09-07T00:27:32.064Z,941.62
2022-09-07T00:28:32.194Z,941.61
2022-09-07T00:29:32.057Z,941.61
2022-09-07T00:30:32.045Z,941.60
2022-09-07T00:31:32.080Z,941.61
2022-09-07T00:32:32.004Z,941.61
2022-09-07T00:33:31.997Z,941.62
2022-09-07T00:34:32.016Z,941.57
2022-09-07T00:35:31.984Z,941.56
2022-09-07T00:36:31.965Z,941.54
2022-09-07T00:37:31.966Z,941.52
2022-09-07T00:38:32.088Z,941.54
2022-09-07T00:39:32.033Z,941.56
2022-09-07T00:40:31.941Z,941.59
2022-09-07T00:41:31.927Z,941.59
2022-09-07T00:42:31.921Z,941.57
2022-09-07T00:43:31.932Z,941.57
2022-09-07T00:44:31.965Z,941.58
2022-09-07T00:45:31.902Z,941.56
2022-09-07T00:46:32.163Z,941.55
2022-09-07T00:47:31.882Z,941.61
2022-09-07T00:48:31.929Z,941.62
2022-09-07T00:49:31.910Z,941.66
2022-09-07T00:50:31.848Z,941.66
2022-09-07T00:51:34.487Z,941.66
2022-09-07T00:52:31.848Z,941.69
2022-09-07T00:53:34.134Z,941.71
2022-09-07T00:54:31.861Z,941.73
2022-09-07T00:55:31.840Z,941.73
2022-09-07T00:56:31.816Z,941.72
2022-09-07T00:57:31.789Z,941.73
2022-09-07T00:58:31.875Z,941.75
2022-09-07T00:59:33.951Z,941.73
2022-09-07T01:00:31.773Z,941.70
2022-09-07T01:01:31.923Z,941.70
2022-09-07T01:02:31.945Z,941.65
2022-09-07T01:03:31.732Z,941.62
2022-09-07T01:04:33.683Z,941.64
2022-09-07T01:05:31.722Z,941.64
2022-09-07T01:06:31.706Z,941.64
2022-09-07T01:07:31.690Z,941.63
2022-09-07T01:08:31.964Z,941.61
2022-09-07T01:09:31.687Z,941.60
2022-09-07T01:10:31.699Z,941.63
2022-09-07T01:11:31.683Z,941.65
2022-09-07T01:12:33.324Z,941.66
2022-09-07T01:13:31.646Z,941.67
2022-09-07T01:14:31.650Z,941.64
2022-09-07T01:15:31.807Z,941.63
2022-09-07T01:16:33.057Z,941.56
2022-09-07T01:17:31.636Z,941.53
2022-09-07T01:18:31.718Z,941.55
2022-09-07T01:19:31.610Z,941.57
2022-09-07T01:20:31.581Z,941.57
2022-09-07T01:21:32.184Z,941.55
2022-09-07T01:22:31.575Z,941.56
2022-09-07T01:23:31.569Z,941.57
2022-09-07T01:24:32.130Z,941.57
2022-09-07T01:25:31.781Z,941.57
2022-09-07T01:26:32.724Z,941.57
2022-09-07T01:27:31.520Z,941.56
2022-09-07T01:28:31.691Z,941.55
2022-09-07T01:29:37.930Z,941.54
2022-09-07T01:30:31.498Z,941.56
2022-09-07T01:31:31.566Z,941.56
2022-09-07T01:32:33.199Z,941.57
2022-09-07T01:33:31.484Z,941.55
2022-09-07T01:34:31.487Z,941.54
2022-09-07T01:35:31.460Z,941.56
2022-09-07T01:36:31.463Z,941.52
2022-09-07T01:37:31.431Z,941.52
2022-09-07T01:38:31.615Z,941.51
2022-09-07T01:39:32.289Z,941.51
2022-09-07T01:40:31.416Z,941.52
2022-09-07T01:41:31.431Z,941.50
2022-09-07T01:42:31.400Z,941.49
2022-09-07T01:43:31.433Z,941.49
2022-09-07T01:44:31.402Z,941.47
